Time;durP1;ratioP1;P1;durP2;ratioP2;P2;SDS_P1;SDS_P2;PMS_P1;PMS_P2;Temp;Humidity;BMP_temperature;BMP_pressure;BME280_temperature;BME280_humidity;BME280_pressure;Samples;Min_cycle;Max_cycle;Signal;HPM_P1;HPM_P2
2022/02/23 00:00:14;;;;;;;26.33;6.50;;;;;;;4.00;100.00;99884.03;3437016;82;98670;-94
2022/02/23 00:05:15;;;;;;;25.60;6.50;;;;;;;4.01;100.00;99887.78;3465622;84;33257;-89
2022/02/23 00:10:16;;;;;;;16.97;6.13;;;;;;;4.02;100.00;99859.97;3462898;83;98582;-88
2022/02/23 00:15:17;;;;;;;20.17;7.87;;;;;;;4.02;100.00;99861.33;3445152;84;98453;-85
2022/02/23 00:20:18;;;;;;;19.23;6.80;;;;;;;4.01;100.00;99852.39;3442951;83;99115;-87
2022/02/23 00:25:19;;;;;;;25.03;6.43;;;;;;;4.01;100.00;99840.69;3452087;83;98774;-88
2022/02/23 00:30:20;;;;;;;21.50;7.67;;;;;;;4.02;100.00;99838.19;3442961;84;98665;-89
2022/02/23 00:35:22;;;;;;;20.40;5.72;;;;;;;4.01;100.00;99829.80;3448970;83;33247;-87
2022/02/23 00:40:23;;;;;;;15.00;6.07;;;;;;;4.02;100.00;99825.93;3439241;84;98780;-85
2022/02/23 00:45:25;;;;;;;19.07;6.43;;;;;;;4.03;100.00;99813.90;3452648;84;98919;-84
2022/02/23 00:50:26;;;;;;;17.73;5.77;;;;;;;3.93;100.00;99789.34;3450761;82;98657;-86
2022/02/23 00:55:27;;;;;;;19.03;7.00;;;;;;;4.04;100.00;99801.30;3478568;83;98754;-84
2022/02/23 01:00:28;;;;;;;20.30;6.47;;;;;;;4.07;100.00;99798.45;3486627;83;99280;-85
2022/02/23 01:05:29;;;;;;;24.70;7.63;;;;;;;4.11;100.00;99800.71;3472301;83;98719;-86
2022/02/23 01:10:30;;;;;;;18.37;6.07;;;;;;;4.09;100.00;99786.08;3485222;83;98387;-84
2022/02/23 01:15:32;;;;;;;17.00;6.22;;;;;;;4.15;100.00;99780.59;3490441;83;98629;-84
2022/02/23 01:20:33;;;;;;;21.37;6.43;;;;;;;4.17;100.00;99785.14;3490643;83;99281;-84
2022/02/23 01:25:35;;;;;;;17.67;6.83;;;;;;;4.22;100.00;99794.41;3472880;83;98774;-85
2022/02/23 01:30:37;;;;;;;14.57;5.60;;;;;;;4.28;100.00;99796.30;3490743;82;98674;-88
2022/02/23 01:35:38;;;;;;;19.27;6.60;;;;;;;4.31;100.00;99788.80;3496859;83;98710;-85
2022/02/23 01:40:39;;;;;;;17.90;6.93;;;;;;;4.37;100.00;99787.39;3495660;83;98477;-85
2022/02/23 01:45:40;;;;;;;16.40;6.40;;;;;;;4.43;100.00;99777.81;3494288;82;98569;-83
2022/02/23 01:50:42;;;;;;;13.77;6.13;;;;;;;4.49;100.00;99782.65;3487888;83;98703;-85
2022/02/23 01:55:44;;;;;;;15.50;6.67;;;;;;;4.57;100.00;99763.95;3478417;83;98737;-84
2022/02/23 02:00:45;;;;;;;15.83;7.00;;;;;;;4.64;100.00;99762.75;3439037;84;98943;-84
2022/02/23 02:05:46;;;;;;;17.43;6.27;;;;;;;4.73;100.00;99759.84;3427072;84;98630;-84
2022/02/23 02:10:47;;;;;;;16.83;6.37;;;;;;;4.79;100.00;99763.31;3416493;84;98897;-85
2022/02/23 02:15:48;;;;;;;12.53;5.37;;;;;;;4.85;100.00;99765.98;3438991;83;98504;-83
2022/02/23 02:20:48;;;;;;;18.10;6.07;;;;;;;4.93;100.00;99769.66;3445003;82;98699;-85
2022/02/23 02:25:49;;;;;;;17.62;5.47;;;;;;;4.99;100.00;99781.31;3447542;83;99104;-84
2022/02/23 02:30:50;;;;;;;11.23;5.93;;;;;;;5.04;100.00;99785.13;3443093;82;99116;-86
2022/02/23 02:35:51;;;;;;;12.20;5.13;;;;;;;5.12;100.00;99794.27;3447060;84;98774;-84
2022/02/23 02:40:52;;;;;;;12.17;4.00;;;;;;;5.19;100.00;99795.78;3437318;84;98529;-86
2022/02/23 02:45:53;;;;;;;7.10;2.27;;;;;;;5.27;100.00;99832.41;3450803;84;98549;-87
2022/02/23 02:50:54;;;;;;;7.85;1.80;;;;;;;5.32;100.00;99843.59;3438036;84;98415;-87
2022/02/23 02:55:55;;;;;;;12.67;1.67;;;;;;;5.29;100.00;99864.78;3470512;83;98622;-86
2022/02/23 03:00:56;;;;;;;15.47;2.40;;;;;;;5.27;100.00;99877.97;3490719;83;98969;-87
2022/02/23 03:05:57;;;;;;;12.87;2.53;;;;;;;5.23;100.00;99890.17;3497272;83;99045;-87
2022/02/23 03:10:58;;;;;;;16.27;3.00;;;;;;;5.18;100.00;99904.67;3495115;82;98348;-86
2022/02/23 03:15:59;;;;;;;12.40;2.67;;;;;;;5.16;100.00;99919.21;3494938;83;98436;-86
2022/02/23 03:21:01;;;;;;;19.25;2.83;;;;;;;5.13;100.00;99924.02;3481352;83;98845;-86
2022/02/23 03:26:03;;;;;;;14.33;2.53;;;;;;;5.14;100.00;99943.33;3496306;83;98592;-86
2022/02/23 03:31:04;;;;;;;17.97;3.30;;;;;;;5.11;100.00;99946.75;3461641;83;99021;-88
2022/02/23 03:36:06;;;;;;;16.50;2.30;;;;;;;5.08;100.00;99970.06;3493094;83;98728;-85
2022/02/23 03:41:07;;;;;;;12.30;2.57;;;;;;;5.09;100.00;99967.58;3490285;83;98579;-85
2022/02/23 03:46:09;;;;;;;15.03;3.27;;;;;;;5.08;100.00;99995.97;3504863;83;98487;-86
2022/02/23 03:51:10;;;;;;;13.58;2.35;;;;;;;5.07;100.00;100001.21;3463280;83;98916;-86
2022/02/23 03:56:38;;;;;;;16.10;3.20;;;;;;;5.06;100.00;100012.46;3480117;83;98935;-85
2022/02/23 04:01:13;;;;;;;16.48;3.30;;;;;;;5.04;100.00;100025.11;3444810;83;98759;-85
2022/02/23 04:06:14;;;;;;;25.13;4.13;;;;;;;5.05;100.00;100028.61;3453168;84;98882;-85
2022/02/23 04:11:15;;;;;;;17.77;4.08;;;;;;;5.05;100.00;100043.05;3448912;82;98358;-85
2022/02/23 04:16:16;;;;;;;16.97;2.10;;;;;;;5.06;100.00;100058.83;3451796;84;99181;-85
2022/02/23 04:21:17;;;;;;;20.03;2.83;;;;;;;5.06;100.00;100079.28;3449249;82;99034;-84
2022/02/23 04:26:18;;;;;;;24.07;3.07;;;;;;;5.06;100.00;100069.17;3452203;83;99161;-86
2022/02/23 04:31:20;;;;;;;17.70;2.50;;;;;;;5.06;100.00;100079.28;3421707;84;98908;-85
2022/02/23 04:36:21;;;;;;;15.73;4.37;;;;;;;5.03;100.00;100097.72;3441893;84;98896;-86
2022/02/23 04:41:22;;;;;;;12.37;2.50;;;;;;;5.02;100.00;100102.95;3436279;84;98683;-85
2022/02/23 04:46:23;;;;;;;17.87;3.83;;;;;;;4.98;100.00;100121.95;3449151;84;98513;-85
2022/02/23 04:51:25;;;;;;;16.63;2.80;;;;;;;4.97;100.00;100118.98;3444041;84;98741;-85
2022/02/23 04:56:27;;;;;;;15.40;2.43;;;;;;;4.96;100.00;100126.16;3445639;84;98768;-84
2022/02/23 05:01:27;;;;;;;25.23;5.33;;;;;;;4.95;100.00;100130.81;3437292;84;98895;-84
2022/02/23 05:06:28;;;;;;;21.80;3.80;;;;;;;4.95;100.00;100134.91;3447425;84;98822;-85
2022/02/23 05:11:29;;;;;;;12.93;2.90;;;;;;;4.95;100.00;100145.81;3449317;84;98845;-85
2022/02/23 05:16:30;;;;;;;18.92;3.70;;;;;;;4.95;100.00;100144.45;3451281;84;35395;-84
2022/02/23 05:21:31;;;;;;;13.37;3.07;;;;;;;4.96;99.85;100159.66;3446429;82;98955;-86
2022/02/23 05:26:32;;;;;;;16.00;3.20;;;;;;;4.96;99.49;100176.03;3453927;84;98616;-84
2022/02/23 05:31:33;;;;;;;15.87;2.93;;;;;;;4.97;98.98;100183.06;3441002;83;98630;-85
2022/02/23 05:36:34;;;;;;;17.90;3.90;;;;;;;4.98;97.87;100201.59;3449264;84;99021;-85
2022/02/23 05:41:36;;;;;;;18.90;2.67;;;;;;;5.00;97.87;100203.39;3443263;84;114742;-84
2022/02/23 05:46:37;;;;;;;19.77;3.30;;;;;;;5.00;97.98;100212.38;3458857;84;33118;-85
2022/02/23 05:51:40;;;;;;;18.77;2.97;;;;;;;5.03;96.82;100240.91;3420958;84;98459;-87
2022/02/23 05:56:41;;;;;;;20.83;3.67;;;;;;;5.04;97.35;100246.58;3468559;84;98644;-85
2022/02/23 06:01:42;;;;;;;15.53;2.83;;;;;;;5.01;97.86;100260.88;3492410;82;99151;-87
2022/02/23 06:06:44;;;;;;;16.03;3.23;;;;;;;4.99;98.12;100265.90;3494375;83;98742;-84
2022/02/23 06:11:45;;;;;;;17.13;3.27;;;;;;;4.97;98.24;100277.14;3491138;83;98614;-87
2022/02/23 06:16:46;;;;;;;19.60;3.87;;;;;;;4.95;98.16;100278.06;3493640;83;98422;-87
2022/02/23 06:21:47;;;;;;;17.23;3.07;;;;;;;4.96;98.19;100296.59;3468960;83;99132;-86
2022/02/23 06:26:48;;;;;;;15.53;3.37;;;;;;;4.94;98.06;100299.66;3488825;83;98643;-86
2022/02/23 06:32:07;;;;;;;26.53;3.63;;;;;;;4.95;97.94;100316.24;3501110;82;98644;-86
2022/02/23 06:37:08;;;;;;;21.42;4.83;;;;;;;4.95;98.27;100328.52;3498995;83;99017;-84
2022/02/23 06:42:09;;;;;;;19.53;4.00;;;;;;;4.94;98.30;100343.30;3521727;82;98661;-88
2022/02/23 06:47:10;;;;;;;19.77;5.17;;;;;;;4.94;97.80;100343.30;3492130;82;98679;-85
2022/02/23 06:52:12;;;;;;;25.60;4.80;;;;;;;5.01;97.56;100356.34;3497104;83;98535;-93
2022/02/23 06:57:13;;;;;;;20.60;4.20;;;;;;;5.04;97.21;100367.94;3469987;83;98908;-87
2022/02/23 07:02:14;;;;;;;19.27;4.03;;;;;;;5.06;97.13;100380.10;3447123;83;98720;-88
2022/02/23 07:07:15;;;;;;;29.57;4.83;;;;;;;5.12;96.72;100383.41;3444825;83;98676;-85
2022/02/23 07:12:16;;;;;;;24.27;3.95;;;;;;;5.15;96.64;100401.25;3445630;83;98769;-87
2022/02/23 07:17:17;;;;;;;21.42;3.15;;;;;;;5.20;96.46;100409.21;3448437;83;98768;-86
2022/02/23 07:22:18;;;;;;;17.97;3.97;;;;;;;5.25;95.62;100425.91;3472982;83;98542;-86
2022/02/23 07:27:19;;;;;;;15.95;3.15;;;;;;;5.30;96.00;100443.42;3454452;83;98639;-89
2022/02/23 07:32:22;;;;;;;16.57;3.47;;;;;;;5.34;95.68;100438.88;3458556;83;98752;-90
2022/02/23 07:37:23;;;;;;;26.97;4.07;;;;;;;5.38;95.75;100450.68;3455508;83;98757;-87
2022/02/23 07:42:24;;;;;;;17.33;3.60;;;;;;;5.40;95.01;100452.52;3457462;83;98717;-90
2022/02/23 07:47:25;;;;;;;13.43;3.70;;;;;;;5.46;95.25;100470.25;3447120;83;98412;-91
2022/02/23 07:52:29;;;;;;;24.43;4.83;;;;;;;5.58;94.85;100480.61;3494700;82;98894;-92
2022/02/23 07:57:29;;;;;;;25.17;5.70;;;;;;;5.66;94.07;100493.88;3483776;83;98528;-91
2022/02/23 08:02:32;;;;;;;19.47;3.90;;;;;;;5.69;94.12;100485.02;3510161;82;98561;-88
2022/02/23 08:07:34;;;;;;;21.10;3.83;;;;;;;5.73;93.69;100494.91;3498743;83;98670;-90
2022/02/23 08:12:35;;;;;;;16.73;3.27;;;;;;;5.84;93.73;100510.30;3503555;82;98650;-90
2022/02/23 08:22:55;;;;;;;15.75;3.10;;;;;;;5.99;92.57;100524.59;3472623;83;35031;-91
2022/02/23 08:27:58;;;;;;;15.53;3.37;;;;;;;6.07;91.82;100535.98;3469078;83;98989;-90
2022/02/23 08:33:02;;;;;;;19.75;3.87;;;;;;;6.14;91.63;100535.64;3492069;83;98607;-92
2022/02/23 08:38:02;;;;;;;14.40;3.10;;;;;;;6.27;90.99;100541.87;3487270;83;99377;-90
2022/02/23 08:43:03;;;;;;;16.73;2.90;;;;;;;6.36;90.90;100551.52;3497382;83;98798;-87
2022/02/23 08:48:05;;;;;;;17.37;3.83;;;;;;;6.42;90.20;100563.80;3492793;83;98658;-94
2022/02/23 08:53:06;;;;;;;15.18;3.25;;;;;;;6.53;90.14;100561.38;3510867;82;33740;-90
2022/02/23 08:58:11;;;;;;;18.05;3.33;;;;;;;6.76;90.23;100576.91;3484859;83;98448;-89
2022/02/23 09:03:10;;;;;;;16.32;3.50;;;;;;;6.94;88.71;100582.33;3491137;83;98502;-87
2022/02/23 09:08:11;;;;;;;13.90;3.27;;;;;;;7.08;87.90;100602.41;3483861;82;98809;-89
2022/02/23 09:13:12;;;;;;;24.53;4.20;;;;;;;7.09;86.79;100609.50;3503194;82;98704;-89
2022/02/23 09:18:13;;;;;;;17.33;2.47;;;;;;;7.19;85.91;100629.53;3483691;83;99126;-93
2022/02/23 09:23:15;;;;;;;15.83;2.83;;;;;;;7.28;84.48;100628.22;3486489;83;32500;-89
2022/02/23 09:28:16;;;;;;;20.37;3.10;;;;;;;7.40;82.79;100632.82;3495437;83;98698;-90
2022/02/23 09:33:17;;;;;;;15.93;3.63;;;;;;;7.52;82.77;100647.25;3494970;83;98563;-92
2022/02/23 09:38:19;;;;;;;15.43;2.90;;;;;;;7.52;82.77;100647.25;3488078;82;98659;-92
2022/02/23 09:43:20;;;;;;;18.93;3.43;;;;;;;7.66;82.62;100666.80;3513489;83;98615;-93
2022/02/23 09:48:28;;;;;;;16.00;3.52;;;;;;;7.71;82.66;100667.11;3483038;83;99047;-94
2022/02/23 09:53:31;;;;;;;20.68;3.60;;;;;;;7.66;80.97;100669.55;3492786;82;98760;-93
2022/02/23 09:58:32;;;;;;;12.55;2.47;;;;;;;7.56;81.83;100671.98;3445811;83;98716;-91
2022/02/23 10:03:34;;;;;;;24.00;3.80;;;;;;;7.55;81.93;100683.53;3452171;83;98572;-92
2022/02/23 10:08:37;;;;;;;14.23;3.45;;;;;;;7.54;80.49;100696.20;3446730;84;98748;-94
2022/02/23 10:13:42;;;;;;;13.15;2.65;;;;;;;7.50;81.63;100707.63;3451674;84;97920;-95
2022/02/23 10:18:42;;;;;;;16.23;2.72;;;;;;;7.39;81.47;100710.64;3441165;84;98693;-94
2022/02/23 10:23:43;;;;;;;21.60;4.07;;;;;;;7.40;81.13;100721.80;3454693;83;98615;-92
2022/02/23 10:28:44;;;;;;;15.43;3.37;;;;;;;7.46;82.52;100728.63;3447100;83;98299;-93
2022/02/23 10:33:45;;;;;;;19.50;4.50;;;;;;;7.55;81.86;100724.61;3459955;83;98508;-94
2022/02/23 10:38:54;;;;;;;12.67;2.80;;;;;;;7.77;82.15;100733.63;3442849;83;98611;-89
2022/02/23 10:43:53;;;;;;;16.45;2.72;;;;;;;7.97;81.45;100744.91;3427646;84;98843;-89
2022/02/23 10:48:59;;;;;;;10.63;2.27;;;;;;;8.20;81.16;100756.94;3440374;83;98736;-90
2022/02/23 10:54:10;;;;;;;14.70;3.40;;;;;;;8.27;79.15;100756.30;3451527;82;98617;-94
2022/02/23 10:59:19;;;;;;;13.87;3.70;;;;;;;8.29;79.81;100771.84;3444837;84;98475;-88
2022/02/23 11:04:21;;;;;;;14.90;4.47;;;;;;;8.27;77.63;100779.60;3490520;82;98339;-89
2022/02/23 11:09:22;;;;;;;17.48;5.45;;;;;;;8.22;78.37;100778.48;3422027;84;98574;-91
2022/02/23 11:14:23;;;;;;;14.47;4.97;;;;;;;8.30;78.73;100795.36;3458186;84;98794;-90
2022/02/23 11:19:26;;;;;;;13.30;3.53;;;;;;;8.24;76.98;100789.33;3441064;83;98605;-91
2022/02/23 11:24:27;;;;;;;15.13;3.00;;;;;;;8.26;76.91;100800.76;3442621;84;98779;-90
2022/02/23 11:29:42;;;;;;;13.63;3.20;;;;;;;8.32;76.54;100810.88;3442984;84;98632;-90
2022/02/23 11:34:46;;;;;;;11.73;3.08;;;;;;;8.32;76.96;100804.83;3446150;82;98319;-91
2022/02/23 11:39:51;;;;;;;11.95;2.87;;;;;;;8.32;75.72;100813.63;3445744;82;98407;-94
2022/02/23 11:45:14;;;;;;;14.87;2.95;;;;;;;8.27;75.77;100824.28;3445826;84;98786;-93
2022/02/23 11:50:22;;;;;;;13.13;2.02;;;;;;;8.20;75.75;100828.22;3434478;84;99300;-90
2022/02/23 11:55:25;;;;;;;13.68;1.90;;;;;;;8.17;75.89;100840.41;3449388;84;98998;-93
2022/02/23 12:00:34;;;;;;;11.18;2.30;;;;;;;8.15;74.79;100842.70;3436883;84;98772;-93
2022/02/23 12:05:46;;;;;;;13.85;2.67;;;;;;;8.18;75.58;100859.84;3448169;84;33767;-91
2022/02/23 12:10:46;;;;;;;12.68;2.95;;;;;;;8.26;75.30;100850.11;3448993;84;98455;-91
2022/02/23 12:15:47;;;;;;;14.60;2.60;;;;;;;8.40;74.56;100862.04;3445363;84;98771;-90
2022/02/23 12:20:49;;;;;;;10.87;2.87;;;;;;;8.45;73.74;100867.27;3420215;83;99115;-94
2022/02/23 12:26:06;;;;;;;16.05;3.47;;;;;;;8.50;74.13;100873.27;3450334;84;99172;-93
2022/02/23 12:31:19;;;;;;;13.62;2.90;;;;;;;8.58;73.69;100881.13;3444083;83;98647;-94
2022/02/23 12:36:35;;;;;;;14.23;2.52;;;;;;;8.57;73.19;100887.17;3448094;84;98643;-92
2022/02/23 12:41:36;;;;;;;10.60;2.02;;;;;;;8.63;73.73;100893.21;3439101;83;98199;-93
2022/02/23 12:46:44;;;;;;;11.57;2.62;;;;;;;8.69;73.08;100896.72;3447746;84;98553;-89
2022/02/23 12:51:46;;;;;;;13.80;2.50;;;;;;;8.75;73.30;100910.40;3442915;84;98809;-89
2022/02/23 12:56:53;;;;;;;13.77;2.70;;;;;;;8.78;72.12;100910.27;3446336;84;98996;-89
2022/02/23 13:01:58;;;;;;;12.35;3.00;;;;;;;8.84;72.10;100912.97;3494150;83;97948;-94
2022/02/23 13:07:04;;;;;;;10.25;2.35;;;;;;;8.88;71.08;100924.25;3488515;83;99145;-90
2022/02/23 13:12:08;;;;;;;13.25;1.82;;;;;;;8.89;70.02;100924.47;3493308;83;99108;-89
2022/02/23 13:17:12;;;;;;;15.03;2.50;;;;;;;8.89;70.36;100928.59;3430020;83;98845;-90
2022/02/23 13:22:18;;;;;;;9.35;1.72;;;;;;;8.94;69.56;100935.19;3424928;85;99056;-92
2022/02/23 13:27:27;;;;;;;6.08;1.72;;;;;;;8.98;69.95;100940.20;3445143;83;98419;-92
2022/02/23 13:32:34;;;;;;;15.68;4.53;;;;;;;8.99;69.27;100939.64;3501986;83;98908;-89
2022/02/23 13:37:42;;;;;;;11.15;2.85;;;;;;;9.06;69.33;100950.20;3490228;83;98679;-92
2022/02/23 13:42:59;;;;;;;6.95;2.83;;;;;;;9.08;69.02;100949.85;3484440;83;98676;-93
2022/02/23 13:48:04;;;;;;;13.10;2.00;;;;;;;9.16;67.93;100952.42;3431045;84;98200;-93
2022/02/23 13:53:10;;;;;;;12.70;2.10;;;;;;;9.18;67.97;100964.43;3432826;84;32004;-88
2022/02/23 13:58:23;;;;;;;11.65;3.15;;;;;;;9.13;66.08;100956.45;3433379;84;98866;-93
2022/02/23 14:03:35;;;;;;;9.10;1.80;;;;;;;9.10;66.48;100973.66;3396562;84;98773;-90
2022/02/23 14:08:41;;;;;;;11.55;1.62;;;;;;;9.12;66.86;100979.02;3428925;84;98824;-91
2022/02/23 14:13:44;;;;;;;10.37;3.27;;;;;;;9.06;66.54;100990.61;3468009;83;99112;-92
2022/02/23 14:18:51;;;;;;;9.48;1.67;;;;;;;8.88;65.88;100985.23;3469141;83;99108;-92
2022/02/23 14:24:01;;;;;;;12.57;2.13;;;;;;;8.73;65.92;100995.60;3466961;82;98838;-94
2022/02/23 14:29:06;;;;;;;10.53;2.40;;;;;;;8.60;66.37;100992.11;3446265;83;98695;-91
2022/02/23 14:34:20;;;;;;;8.45;1.65;;;;;;;8.53;65.32;100999.34;3466178;83;99003;-88
2022/02/23 14:39:23;;;;;;;9.37;1.90;;;;;;;8.49;65.75;101006.66;3454166;83;98579;-92
2022/02/23 14:44:24;;;;;;;12.07;2.40;;;;;;;8.37;65.87;101018.50;3457225;83;98869;-90
2022/02/23 14:49:25;;;;;;;6.40;1.87;;;;;;;8.28;66.34;101026.05;3462156;84;99125;-91
2022/02/23 14:54:26;;;;;;;9.97;2.93;;;;;;;8.20;66.43;101027.56;3455771;83;98970;-89
2022/02/23 14:59:27;;;;;;;12.37;2.60;;;;;;;8.13;67.11;101032.81;3460973;84;98410;-94
2022/02/23 15:04:28;;;;;;;9.87;1.80;;;;;;;8.07;66.83;101041.05;3425678;84;98970;-92
2022/02/23 15:09:30;;;;;;;9.30;2.13;;;;;;;7.98;66.61;101043.92;3435425;83;98696;-90
2022/02/23 15:14:32;;;;;;;20.30;6.43;;;;;;;7.91;66.78;101058.75;3428063;84;99297;-93
2022/02/23 15:19:34;;;;;;;122.60;58.37;;;;;;;7.84;66.69;101054.98;3428339;83;98743;-91
2022/02/23 15:24:36;;;;;;;12.93;4.10;;;;;;;7.76;67.34;101065.50;3419824;83;99413;-92
2022/02/23 15:29:37;;;;;;;12.43;2.83;;;;;;;7.68;67.01;101069.95;3421293;84;98856;-91
2022/02/23 15:34:38;;;;;;;10.27;3.23;;;;;;;7.61;67.60;101080.68;3439948;82;98723;-91
2022/02/23 15:39:40;;;;;;;10.27;3.17;;;;;;;7.54;67.71;101086.48;3430582;84;98719;-92
2022/02/23 15:44:42;;;;;;;13.27;3.80;;;;;;;7.47;68.40;101086.26;3435437;83;97957;-92
2022/02/23 15:49:43;;;;;;;15.17;4.70;;;;;;;7.40;68.66;101100.50;3416844;84;98988;-90
2022/02/23 15:54:44;;;;;;;13.13;3.77;;;;;;;7.33;68.89;101098.08;3426564;84;99143;-91
2022/02/23 15:59:45;;;;;;;9.87;3.33;;;;;;;7.22;69.43;101103.20;3429053;82;98952;-91
2022/02/23 16:04:46;;;;;;;9.97;2.80;;;;;;;7.12;69.86;101102.25;3437478;84;98631;-91
2022/02/23 16:09:47;;;;;;;13.43;3.00;;;;;;;7.02;69.79;101111.44;3433736;84;98610;-90
2022/02/23 16:14:49;;;;;;;14.37;3.13;;;;;;;6.91;70.08;101108.89;3433339;84;99093;-87
2022/02/23 16:19:50;;;;;;;13.97;2.83;;;;;;;6.80;70.38;101113.17;3411227;84;99011;-90
2022/02/23 16:24:50;;;;;;;13.17;3.03;;;;;;;6.72;70.74;101123.05;3424938;84;99085;-89
2022/02/23 16:29:55;;;;;;;15.03;4.00;;;;;;;6.59;70.96;101135.06;3448082;82;98514;-90
2022/02/23 16:34:56;;;;;;;14.73;4.80;;;;;;;6.48;71.56;101145.35;3439597;84;98354;-90
2022/02/23 16:39:57;;;;;;;18.63;7.27;;;;;;;6.39;71.78;101156.94;3443844;83;98486;-90
2022/02/23 16:44:58;;;;;;;19.57;7.57;;;;;;;6.26;72.17;101164.79;3435755;84;98708;-89
2022/02/23 16:49:59;;;;;;;36.47;12.23;;;;;;;6.09;72.69;101170.35;3413015;82;98728;-90
2022/02/23 16:55:00;;;;;;;38.67;12.30;;;;;;;5.90;73.11;101176.22;3429780;84;98793;-90
2022/02/23 17:00:02;;;;;;;35.03;11.13;;;;;;;5.76;73.90;101177.53;3422425;84;98791;-89
2022/02/23 17:05:03;;;;;;;42.80;14.37;;;;;;;5.63;73.92;101184.00;3478204;83;32508;-88
2022/02/23 17:10:07;;;;;;;30.53;10.50;;;;;;;5.50;74.52;101190.44;3443062;84;98739;-88
2022/02/23 17:15:10;;;;;;;40.78;16.30;;;;;;;5.40;75.05;101190.23;3449035;84;98927;-89
2022/02/23 17:20:13;;;;;;;30.10;11.65;;;;;;;5.30;75.36;101200.11;3440381;84;98827;-89
2022/02/23 17:25:14;;;;;;;31.73;15.13;;;;;;;5.17;75.77;101207.11;3452353;84;99189;-89
2022/02/23 17:30:15;;;;;;;44.67;18.60;;;;;;;5.06;76.29;101207.19;3448309;83;99151;-88
2022/02/23 17:35:16;;;;;;;33.20;13.87;;;;;;;4.93;76.84;101206.80;3432714;84;33231;-88
2022/02/23 17:40:17;;;;;;;30.50;11.40;;;;;;;4.82;77.69;101214.51;3456880;84;98698;-88
2022/02/23 17:45:20;;;;;;;27.87;10.50;;;;;;;4.68;78.21;101216.56;3462197;84;98665;-88
2022/02/23 17:50:21;;;;;;;31.10;11.18;;;;;;;4.53;79.21;101223.83;3454711;84;98910;-88
2022/02/23 17:55:21;;;;;;;28.20;10.30;;;;;;;4.37;79.11;101219.94;3465081;83;99132;-88
2022/02/23 18:00:22;;;;;;;33.77;13.83;;;;;;;4.19;79.80;101216.10;3454387;83;99272;-88
2022/02/23 18:05:23;;;;;;;28.73;12.63;;;;;;;4.03;80.67;101214.37;3426979;84;32542;-89
2022/02/23 18:10:26;;;;;;;33.30;13.18;;;;;;;3.91;81.00;101217.44;3416145;82;98714;-89
2022/02/23 18:15:29;;;;;;;35.37;14.97;;;;;;;3.78;81.40;101225.93;3430345;84;98728;-88
2022/02/23 18:20:32;;;;;;;41.50;17.32;;;;;;;3.68;81.84;101230.84;3420993;84;98814;-89
2022/02/23 18:25:33;;;;;;;47.45;17.92;;;;;;;3.60;82.28;101234.34;3424670;84;98867;-89
2022/02/23 18:30:34;;;;;;;56.13;19.93;;;;;;;3.50;82.64;101239.45;3414577;84;98895;-89
2022/02/23 18:35:36;;;;;;;66.60;24.07;;;;;;;3.40;83.28;101242.45;3419330;84;32540;-90
2022/02/23 18:40:37;;;;;;;44.83;17.83;;;;;;;3.25;83.09;101251.52;3450735;82;98638;-90
2022/02/23 18:45:37;;;;;;;49.53;17.47;;;;;;;3.12;83.58;101251.81;3424605;84;99068;-90
2022/02/23 18:50:38;;;;;;;56.70;21.23;;;;;;;3.07;84.19;101258.73;3425725;84;98796;-90
2022/02/23 18:55:39;;;;;;;50.47;18.90;;;;;;;2.99;84.62;101265.45;3426253;84;99398;-90
2022/02/23 19:00:40;;;;;;;47.70;18.00;;;;;;;2.96;85.28;101268.80;3427395;84;98904;-90
2022/02/23 19:05:42;;;;;;;39.97;16.40;;;;;;;2.94;85.73;101276.44;3431471;84;32446;-90
2022/02/23 19:10:43;;;;;;;38.05;13.65;;;;;;;2.93;85.94;101270.75;3444596;83;98715;-90
2022/02/23 19:15:44;;;;;;;34.40;12.53;;;;;;;2.87;86.31;101273.34;3438005;83;98736;-90
2022/02/23 19:20:45;;;;;;;48.93;18.60;;;;;;;2.83;86.46;101278.59;3432478;84;98860;-90
2022/02/23 19:25:46;;;;;;;71.87;31.23;;;;;;;2.79;86.85;101277.58;3471379;83;99257;-90
2022/02/23 19:30:49;;;;;;;53.75;23.12;;;;;;;2.73;86.85;101275.30;3413933;80;98985;-90
2022/02/23 19:35:50;;;;;;;34.90;14.70;;;;;;;2.67;87.15;101281.37;3446392;84;27452;-90
2022/02/23 19:40:53;;;;;;;28.90;11.57;;;;;;;2.62;87.41;101275.25;3435305;83;99026;-91
2022/02/23 19:45:54;;;;;;;33.13;10.63;;;;;;;2.57;87.60;101281.58;3451079;84;98746;-89
2022/02/23 19:50:55;;;;;;;29.00;11.03;;;;;;;2.49;88.00;101272.80;3436122;84;98814;-91
2022/02/23 19:56:01;;;;;;;27.70;9.60;;;;;;;2.42;88.59;101279.73;3440883;82;98826;-91
2022/02/23 20:01:01;;;;;;;26.10;9.33;;;;;;;2.35;88.78;101282.84;3436582;83;98966;-91
2022/02/23 20:06:05;;;;;;;23.63;8.30;;;;;;;2.23;89.28;101286.62;3428046;83;98626;-89
2022/02/23 20:11:09;;;;;;;28.43;9.37;;;;;;;2.18;89.23;101285.36;3441046;83;98826;-91
2022/02/23 20:16:11;;;;;;;34.60;12.47;;;;;;;2.09;88.92;101289.86;3446537;83;98585;-90
2022/02/23 20:21:12;;;;;;;49.45;18.00;;;;;;;2.01;89.37;101283.78;3452054;83;98811;-91
2022/02/23 20:26:13;;;;;;;53.97;20.17;;;;;;;1.90;89.54;101279.64;3463020;84;99202;-91
2022/02/23 20:31:15;;;;;;;54.83;20.27;;;;;;;1.81;89.73;101280.06;3447338;84;98872;-90
2022/02/23 20:36:16;;;;;;;51.53;18.37;;;;;;;1.74;90.46;101274.76;3442983;83;98948;-92
2022/02/23 20:41:17;;;;;;;53.47;19.97;;;;;;;1.67;90.20;101270.28;3439729;83;98735;-90
2022/02/23 20:46:18;;;;;;;64.70;24.50;;;;;;;1.56;90.49;101271.55;3446575;84;98715;-91
2022/02/23 20:51:19;;;;;;;110.00;44.87;;;;;;;1.51;90.81;101272.45;3436011;84;98746;-87
2022/02/23 20:56:20;;;;;;;96.10;38.23;;;;;;;1.44;90.73;101277.46;3443615;82;99473;-88
2022/02/23 21:01:23;;;;;;;79.70;34.77;;;;;;;1.33;91.37;101277.36;3432567;84;98868;-89
2022/02/23 21:06:24;;;;;;;87.07;34.73;;;;;;;1.26;91.24;101274.77;3446978;84;98894;-88
2022/02/23 21:11:25;;;;;;;60.60;26.10;;;;;;;1.24;92.00;101281.02;3442909;84;98624;-88
2022/02/23 21:16:26;;;;;;;91.17;37.50;;;;;;;1.12;91.17;101274.70;3428156;83;98668;-91
2022/02/23 21:21:27;;;;;;;70.13;29.23;;;;;;;1.08;91.63;101271.50;3425301;84;98707;-90
2022/02/23 21:26:28;;;;;;;209.95;72.35;;;;;;;1.05;92.20;101271.53;3440104;84;98886;-90
2022/02/23 21:31:29;;;;;;;265.00;91.57;;;;;;;1.00;91.84;101265.39;3426979;84;99411;-90
2022/02/23 21:36:30;;;;;;;232.00;79.30;;;;;;;0.93;92.57;101263.04;3429410;82;98993;-91
2022/02/23 21:41:32;;;;;;;231.80;85.73;;;;;;;0.90;92.93;101262.83;3415640;84;98896;-91
2022/02/23 21:46:33;;;;;;;149.63;55.80;;;;;;;0.88;93.21;101267.75;3367275;85;98826;-91
2022/02/23 21:51:34;;;;;;;221.53;81.03;;;;;;;0.83;92.91;101271.31;3355272;86;98891;-91
2022/02/23 21:56:36;;;;;;;174.40;64.57;;;;;;;0.77;93.14;101273.83;3425554;83;99141;-91
2022/02/23 22:01:37;;;;;;;138.93;53.33;;;;;;;0.70;92.83;101276.10;3433043;84;99395;-91
2022/02/23 22:06:37;;;;;;;84.50;35.17;;;;;;;0.66;93.97;101261.52;3442043;84;99481;-91
2022/02/23 22:11:39;;;;;;;88.50;35.83;;;;;;;0.59;93.81;101263.79;3434047;84;98334;-90
2022/02/23 22:16:40;;;;;;;79.83;34.33;;;;;;;0.54;93.49;101266.56;3443202;84;98616;-92
2022/02/23 22:21:41;;;;;;;157.67;56.90;;;;;;;0.51;94.07;101263.06;3438876;84;98659;-92
2022/02/23 22:26:42;;;;;;;194.83;75.90;;;;;;;0.51;94.23;101264.98;3446484;84;99402;-91
2022/02/23 22:31:43;;;;;;;115.30;45.37;;;;;;;0.50;94.65;101249.84;3437112;83;99445;-90
2022/02/23 22:36:44;;;;;;;110.30;47.33;;;;;;;0.46;94.52;101252.86;3445143;84;99065;-90
2022/02/23 22:41:45;;;;;;;102.80;41.93;;;;;;;0.47;94.42;101241.75;3441789;84;99061;-90
2022/02/23 22:46:46;;;;;;;107.20;43.97;;;;;;;0.49;95.37;101226.00;3445331;83;98998;-90
2022/02/23 22:51:48;;;;;;;103.37;44.83;;;;;;;0.45;94.98;101227.67;3412691;84;98904;-90
2022/02/23 22:56:50;;;;;;;91.20;39.43;;;;;;;0.45;95.00;101220.11;3394181;84;99166;-90
2022/02/23 23:01:51;;;;;;;80.40;33.87;;;;;;;0.43;95.21;101223.11;3436643;84;99130;-90
2022/02/23 23:06:51;;;;;;;65.83;30.43;;;;;;;0.39;95.29;101218.57;3437123;83;99275;-91
2022/02/23 23:11:52;;;;;;;70.07;28.40;;;;;;;0.34;95.00;101221.34;3457184;84;30942;-90
2022/02/23 23:16:53;;;;;;;66.27;27.00;;;;;;;0.33;95.54;101231.92;3436995;84;98701;-91
2022/02/23 23:21:54;;;;;;;65.97;28.87;;;;;;;0.30;95.46;101235.19;3412148;85;98706;-90